Time;durP1;ratioP1;P1;durP2;ratioP2;P2;SDS_P1;SDS_P2;PMS_P1;PMS_P2;Temp;Humidity;BMP_temperature;BMP_pressure;BME280_temperature;BME280_humidity;BME280_pressure;Samples;Min_cycle;Max_cycle;Signal;HPM_P1;HPM_P2
2021/05/15 00:01:34;;;;;;;8.60;7.68;;;11.90;99.90;;;;;;5079369;28;20088;-80
2021/05/15 00:04:02;;;;;;;8.10;7.30;;;11.70;99.90;;;;;;5080864;28;20047;-81
2021/05/15 00:06:28;;;;;;;7.97;6.55;;;11.60;99.90;;;;;;5080866;28;20060;-80
2021/05/15 00:08:55;;;;;;;8.85;7.40;;;11.60;99.90;;;;;;5081852;28;20464;-81
2021/05/15 00:11:22;;;;;;;8.52;6.82;;;11.60;99.90;;;;;;5081416;28;20136;-79
2021/05/15 00:13:49;;;;;;;10.50;6.97;;;11.50;99.90;;;;;;5081578;28;20512;-81
2021/05/15 00:16:15;;;;;;;7.32;5.93;;;11.50;99.90;;;;;;5081243;28;20053;-81
2021/05/15 00:18:44;;;;;;;9.75;6.30;;;11.50;99.90;;;;;;5080843;28;20505;-80
2021/05/15 00:21:10;;;;;;;6.97;5.72;;;11.50;99.90;;;;;;5080578;28;20068;-82
2021/05/15 00:23:37;;;;;;;9.35;6.35;;;11.50;99.90;;;;;;5081310;28;20080;-82
2021/05/15 00:26:03;;;;;;;12.55;6.05;;;11.50;99.90;;;;;;5083059;28;20052;-81
2021/05/15 00:28:30;;;;;;;7.30;5.60;;;11.50;99.90;;;;;;5082811;28;20052;-81
2021/05/15 00:31:00;;;;;;;8.10;6.18;;;11.60;99.90;;;;;;5087698;28;20060;-81
2021/05/15 00:33:26;;;;;;;8.57;6.00;;;11.70;99.90;;;;;;5083476;28;20048;-80
2021/05/15 00:35:54;;;;;;;6.60;5.70;;;11.70;99.90;;;;;;5082746;28;20565;-81
2021/05/15 00:38:20;;;;;;;6.80;5.80;;;11.80;99.90;;;;;;5083528;28;20125;-81
2021/05/15 00:40:47;;;;;;;8.32;5.65;;;11.70;99.90;;;;;;5083222;28;20106;-81
2021/05/15 00:43:13;;;;;;;7.90;5.80;;;11.60;99.90;;;;;;5082435;28;20517;-81
2021/05/15 00:45:42;;;;;;;7.65;5.63;;;11.60;99.90;;;;;;5081970;28;20047;-82
2021/05/15 00:48:09;;;;;;;9.60;5.80;;;11.60;99.90;;;;;;5082141;28;20052;-82
2021/05/15 00:50:38;;;;;;;8.38;6.22;;;11.60;99.90;;;;;;5082095;28;20052;-81
2021/05/15 00:53:05;;;;;;;8.13;5.97;;;11.40;99.90;;;;;;5084288;28;20052;-82
2021/05/15 00:55:33;;;;;;;10.68;6.63;;;11.30;99.90;;;;;;5083033;28;20108;-81
2021/05/15 00:58:00;;;;;;;7.72;6.18;;;11.20;99.90;;;;;;5081502;28;20059;-82
2021/05/15 01:00:26;;;;;;;7.95;6.03;;;11.20;99.90;;;;;;5082110;28;20416;-82
2021/05/15 01:02:52;;;;;;;7.95;5.80;;;11.20;99.90;;;;;;5082433;28;20135;-82
2021/05/15 01:05:20;;;;;;;7.95;5.90;;;11.20;99.90;;;;;;5083256;28;20059;-83
2021/05/15 01:07:48;;;;;;;6.60;5.85;;;11.20;99.90;;;;;;5082915;28;20520;-82
2021/05/15 01:10:16;;;;;;;6.03;5.30;;;11.10;99.90;;;;;;5082737;28;20083;-81
2021/05/15 01:12:50;;;;;;;7.57;5.30;;;11.10;99.90;;;;;;5081375;28;20055;-81
2021/05/15 01:15:17;;;;;;;8.45;5.28;;;11.10;99.90;;;;;;5081992;28;20071;-81
2021/05/15 01:17:51;;;;;;;7.45;5.15;;;11.10;99.90;;;;;;5081231;28;20139;-80
2021/05/15 01:20:20;;;;;;;7.38;5.10;;;11.10;99.90;;;;;;5081652;28;20079;-81
2021/05/15 01:22:48;;;;;;;7.70;4.88;;;11.10;99.90;;;;;;5081768;28;20504;-82
2021/05/15 01:25:15;;;;;;;7.82;5.30;;;11.20;99.90;;;;;;5080028;28;20550;-82
2021/05/15 01:27:41;;;;;;;5.35;4.68;;;11.20;99.90;;;;;;5080758;28;20127;-82
2021/05/15 01:30:10;;;;;;;4.72;4.25;;;11.30;99.90;;;;;;5081957;28;20086;-83
2021/05/15 01:32:38;;;;;;;7.85;4.63;;;11.30;99.90;;;;;;5082763;28;20083;-81
2021/05/15 01:35:06;;;;;;;6.22;4.80;;;11.30;99.90;;;;;;5083897;28;20060;-82
2021/05/15 01:37:33;;;;;;;7.72;4.63;;;11.30;99.90;;;;;;5079091;28;20075;-80
2021/05/15 01:40:00;;;;;;;6.35;4.75;;;11.30;99.90;;;;;;5078664;28;20054;-81
2021/05/15 01:42:27;;;;;;;6.05;4.57;;;11.30;99.90;;;;;;5078332;28;20140;-82
2021/05/15 01:44:53;;;;;;;7.18;4.47;;;11.30;99.90;;;;;;5080527;28;20420;-82
2021/05/15 01:47:19;;;;;;;5.38;4.30;;;11.30;99.90;;;;;;5079070;28;20090;-82
2021/05/15 01:49:47;;;;;;;5.50;4.75;;;11.30;99.90;;;;;;5079849;28;20075;-81
2021/05/15 01:52:14;;;;;;;5.80;4.28;;;11.40;99.90;;;;;;5081035;28;20148;-82
2021/05/15 01:54:41;;;;;;;5.55;4.20;;;11.30;99.90;;;;;;5091138;28;20052;-81
2021/05/15 01:57:08;;;;;;;6.05;4.53;;;11.30;99.90;;;;;;5091822;28;20076;-82
2021/05/15 01:59:35;;;;;;;5.25;4.20;;;11.20;99.90;;;;;;5080125;28;20063;-80
2021/05/15 02:02:01;;;;;;;6.25;4.40;;;11.20;99.90;;;;;;5079418;28;20049;-81
2021/05/15 02:04:28;;;;;;;5.63;4.30;;;11.20;99.90;;;;;;5079693;28;20048;-81
2021/05/15 02:06:56;;;;;;;6.07;4.75;;;11.20;99.90;;;;;;5079564;28;20544;-82
2021/05/15 02:09:22;;;;;;;5.35;4.57;;;11.10;99.90;;;;;;5079779;28;20068;-82
2021/05/15 02:11:48;;;;;;;7.35;4.40;;;11.10;99.90;;;;;;5079426;28;20122;-81
2021/05/15 02:14:16;;;;;;;7.63;4.50;;;11.00;99.90;;;;;;5078067;28;20132;-81
2021/05/15 02:16:42;;;;;;;5.13;4.60;;;10.90;99.90;;;;;;5077335;28;20079;-80
2021/05/15 02:19:09;;;;;;;6.57;4.55;;;10.90;99.90;;;;;;5079337;28;20048;-80
2021/05/15 02:21:35;;;;;;;5.90;4.28;;;10.80;99.90;;;;;;5078692;28;20072;-80
2021/05/15 02:24:02;;;;;;;5.00;4.50;;;10.80;99.90;;;;;;5076345;28;20128;-81
2021/05/15 02:26:28;;;;;;;6.45;4.00;;;10.90;99.90;;;;;;5075693;28;20044;-81
2021/05/15 02:28:55;;;;;;;6.95;4.93;;;10.80;99.90;;;;;;5076063;28;20053;-81
2021/05/15 02:31:22;;;;;;;5.90;4.47;;;10.80;99.90;;;;;;5076337;28;20109;-79
2021/05/15 02:33:48;;;;;;;5.20;4.22;;;10.80;99.90;;;;;;5075916;28;20182;-81
2021/05/15 02:36:15;;;;;;;6.07;4.15;;;10.90;99.90;;;;;;5076840;28;20083;-80
2021/05/15 02:38:41;;;;;;;5.97;4.50;;;10.90;99.90;;;;;;5074867;28;20056;-81
2021/05/15 02:41:07;;;;;;;4.80;4.28;;;10.90;99.90;;;;;;5075414;28;20049;-80
2021/05/15 02:43:34;;;;;;;7.07;4.30;;;10.90;99.90;;;;;;5074936;28;20116;-80
2021/05/15 02:46:00;;;;;;;6.90;4.55;;;10.90;99.90;;;;;;5075435;28;20148;-80
2021/05/15 02:48:27;;;;;;;5.47;4.25;;;10.90;99.90;;;;;;5094992;28;20706;-80
2021/05/15 02:50:54;;;;;;;5.63;4.25;;;10.90;99.90;;;;;;5096565;28;20040;-80
2021/05/15 02:53:20;;;;;;;6.80;4.20;;;10.90;99.90;;;;;;5096785;28;20060;-79
2021/05/15 02:55:47;;;;;;;5.93;4.22;;;10.90;99.90;;;;;;5096586;28;20060;-80
2021/05/15 02:58:16;;;;;;;4.78;4.15;;;10.90;99.90;;;;;;5094103;28;20075;-80
2021/05/15 03:00:42;;;;;;;6.47;4.28;;;10.80;99.90;;;;;;5080418;28;20412;-80
2021/05/15 03:03:09;;;;;;;5.30;3.90;;;10.80;99.90;;;;;;5077908;28;20190;-81
2021/05/15 03:05:37;;;;;;;4.32;3.70;;;10.80;99.90;;;;;;5078703;28;20510;-81
2021/05/15 03:08:03;;;;;;;5.07;3.80;;;10.80;99.90;;;;;;5077768;28;20137;-80
2021/05/15 03:10:30;;;;;;;4.63;3.97;;;10.80;99.90;;;;;;5078229;28;20084;-81
2021/05/15 03:12:57;;;;;;;5.20;3.95;;;10.80;99.90;;;;;;5078864;28;20139;-81
2021/05/15 03:15:25;;;;;;;6.85;3.92;;;10.70;99.90;;;;;;5077649;28;20131;-80
2021/05/15 03:17:52;;;;;;;5.10;3.92;;;10.80;99.90;;;;;;5078146;28;20079;-82
2021/05/15 03:20:20;;;;;;;4.75;3.90;;;10.80;99.90;;;;;;5078315;28;20103;-81
2021/05/15 03:22:48;;;;;;;4.78;4.00;;;10.90;99.90;;;;;;5083692;28;20138;-81
2021/05/15 03:25:15;;;;;;;4.47;4.07;;;10.90;99.90;;;;;;5085487;28;20041;-81
2021/05/15 03:27:41;;;;;;;5.80;4.07;;;10.90;99.90;;;;;;5077813;28;20048;-80
2021/05/15 03:30:10;;;;;;;5.95;4.20;;;10.90;99.90;;;;;;5077328;28;20117;-81
2021/05/15 03:32:36;;;;;;;4.85;4.10;;;11.00;99.90;;;;;;5078008;28;20099;-81
2021/05/15 03:35:04;;;;;;;6.47;4.32;;;11.00;99.90;;;;;;5079045;28;20108;-81
2021/05/15 03:37:30;;;;;;;6.00;3.95;;;11.00;99.90;;;;;;5098450;23;20117;-78
2021/05/15 03:39:57;;;;;;;5.82;4.10;;;11.00;99.90;;;;;;5014852;28;20096;-80
2021/05/15 03:42:25;;;;;;;5.75;4.30;;;11.00;99.90;;;;;;5023467;28;20140;-80
2021/05/15 03:44:52;;;;;;;5.35;4.60;;;11.10;99.90;;;;;;5023154;28;20118;-80
2021/05/15 03:47:18;;;;;;;5.80;3.90;;;11.00;99.90;;;;;;5022401;28;20180;-79
2021/05/15 03:49:44;;;;;;;4.63;3.80;;;11.10;99.90;;;;;;5042481;28;20057;-81
2021/05/15 03:52:11;;;;;;;5.07;4.28;;;11.10;99.90;;;;;;5042137;28;20100;-80
2021/05/15 03:54:37;;;;;;;5.78;4.10;;;11.10;99.90;;;;;;5042018;28;20073;-80
2021/05/15 03:57:05;;;;;;;6.60;4.00;;;11.00;99.90;;;;;;5042189;28;20474;-80
2021/05/15 03:59:31;;;;;;;4.68;3.95;;;11.00;99.90;;;;;;5042148;28;20474;-79
2021/05/15 04:01:58;;;;;;;4.75;4.25;;;11.00;99.90;;;;;;5043015;28;20518;-80
2021/05/15 04:04:24;;;;;;;7.65;4.28;;;11.00;99.90;;;;;;5041952;28;20170;-80
2021/05/15 04:06:51;;;;;;;4.80;4.10;;;11.00;99.90;;;;;;5041440;28;20060;-80
2021/05/15 04:09:17;;;;;;;6.55;4.53;;;11.00;99.90;;;;;;5039434;28;20111;-79
2021/05/15 04:11:43;;;;;;;5.30;4.38;;;11.00;99.90;;;;;;5041395;28;20057;-80
2021/05/15 04:14:23;;;;;;;5.43;4.10;;;11.10;99.90;;;;;;5041089;28;20132;-80
2021/05/15 04:17:01;;;;;;;4.72;3.97;;;11.10;99.90;;;;;;5041055;28;20092;-80
2021/05/15 04:19:28;;;;;;;5.80;4.57;;;11.10;99.90;;;;;;5042043;28;20064;-80
2021/05/15 04:21:54;;;;;;;5.95;3.97;;;11.00;99.90;;;;;;5041859;28;20136;-79
2021/05/15 04:24:24;;;;;;;5.60;4.32;;;11.00;99.90;;;;;;5041538;28;20513;-80
2021/05/15 04:26:51;;;;;;;5.68;4.85;;;11.10;99.90;;;;;;5041188;28;20057;-79
2021/05/15 04:29:18;;;;;;;6.97;5.78;;;11.10;99.90;;;;;;5041166;28;20113;-81
2021/05/15 04:31:44;;;;;;;8.77;5.43;;;11.10;99.90;;;;;;5038483;28;20112;-80
2021/05/15 04:34:11;;;;;;;6.70;5.70;;;11.20;99.90;;;;;;5039049;28;20484;-80
2021/05/15 04:36:37;;;;;;;7.82;6.55;;;11.20;99.90;;;;;;5038653;28;20132;-80
2021/05/15 04:39:04;;;;;;;6.80;6.00;;;11.20;99.90;;;;;;5037145;28;20137;-80
2021/05/15 04:41:30;;;;;;;8.95;5.97;;;11.20;99.90;;;;;;5035151;28;20053;-80
2021/05/15 04:43:57;;;;;;;8.88;6.45;;;11.20;99.90;;;;;;5035422;28;20496;-80
2021/05/15 04:46:24;;;;;;;6.65;5.95;;;11.20;99.90;;;;;;5033663;28;20498;-80
2021/05/15 04:48:50;;;;;;;8.60;6.22;;;11.20;99.90;;;;;;5034883;28;20144;-81
2021/05/15 04:51:17;;;;;;;8.05;6.13;;;11.20;99.90;;;;;;5037429;28;20136;-80
2021/05/15 04:53:43;;;;;;;7.18;5.90;;;11.30;99.90;;;;;;5038906;28;20056;-81
2021/05/15 04:56:09;;;;;;;9.77;6.45;;;11.30;99.90;;;;;;5037634;28;20045;-79
2021/05/15 04:58:36;;;;;;;7.70;6.35;;;11.30;99.90;;;;;;5039042;28;20060;-80
2021/05/15 05:01:03;;;;;;;7.82;6.15;;;11.40;99.90;;;;;;5038835;28;20076;-82
2021/05/15 05:03:30;;;;;;;7.97;6.53;;;11.40;99.90;;;;;;5038862;28;20398;-81
2021/05/15 05:05:57;;;;;;;7.28;6.45;;;11.40;99.90;;;;;;5039438;28;20118;-81
2021/05/15 05:08:25;;;;;;;8.38;6.20;;;11.40;99.90;;;;;;5038501;28;20077;-81
2021/05/15 05:10:51;;;;;;;7.85;6.18;;;11.50;99.90;;;;;;5038418;28;20049;-80
2021/05/15 05:13:18;;;;;;;8.23;5.82;;;11.50;99.90;;;;;;5034507;28;20152;-80
2021/05/15 05:15:44;;;;;;;9.90;6.38;;;11.50;99.90;;;;;;5033953;28;20129;-80
2021/05/15 05:18:11;;;;;;;7.40;5.80;;;11.60;99.90;;;;;;5033742;28;20490;-80
2021/05/15 05:20:39;;;;;;;6.70;6.00;;;11.60;99.90;;;;;;5034273;28;20136;-80
2021/05/15 05:23:05;;;;;;;8.93;6.00;;;11.60;99.90;;;;;;5035089;28;20140;-80
2021/05/15 05:25:32;;;;;;;6.82;5.80;;;11.60;99.90;;;;;;5038400;28;20228;-80
2021/05/15 05:27:59;;;;;;;6.88;5.80;;;11.60;99.90;;;;;;5037601;28;20095;-80
2021/05/15 05:30:25;;;;;;;7.32;6.00;;;11.70;99.90;;;;;;5038248;28;20061;-80
2021/05/15 05:32:52;;;;;;;6.75;5.72;;;11.70;99.90;;;;;;5038165;28;20072;-80
2021/05/15 05:35:19;;;;;;;7.97;5.65;;;11.80;99.90;;;;;;5037179;28;20088;-82
2021/05/15 05:37:47;;;;;;;8.93;6.20;;;11.80;99.90;;;;;;5036090;28;20148;-82
2021/05/15 05:40:15;;;;;;;8.52;6.25;;;11.90;99.90;;;;;;5035887;28;20109;-81
2021/05/15 05:42:42;;;;;;;10.27;6.53;;;11.90;99.90;;;;;;5035368;28;20132;-81
2021/05/15 05:45:11;;;;;;;7.70;6.10;;;11.90;99.90;;;;;;5034904;28;20059;-81
2021/05/15 05:47:38;;;;;;;6.80;5.90;;;11.90;99.90;;;;;;5032751;28;20108;-80
2021/05/15 05:50:06;;;;;;;7.35;6.53;;;12.00;99.90;;;;;;5032704;28;20135;-79
2021/05/15 05:52:32;;;;;;;8.93;6.28;;;12.00;99.90;;;;;;5035370;28;20600;-80
2021/05/15 05:55:00;;;;;;;7.25;5.68;;;12.00;99.90;;;;;;5036873;28;20042;-79
2021/05/15 05:57:26;;;;;;;7.97;6.07;;;12.00;99.90;;;;;;5035470;28;20045;-79
2021/05/15 05:59:52;;;;;;;7.55;5.95;;;12.10;99.90;;;;;;5034079;28;20573;-79
2021/05/15 06:02:19;;;;;;;11.68;6.13;;;12.10;99.90;;;;;;5031548;28;20092;-79
2021/05/15 06:04:45;;;;;;;8.40;5.97;;;12.10;99.90;;;;;;5031255;28;20124;-78
2021/05/15 06:07:12;;;;;;;8.65;6.00;;;12.20;99.90;;;;;;5031536;28;20122;-78
2021/05/15 06:09:39;;;;;;;7.63;6.40;;;12.30;99.90;;;;;;5034197;28;20059;-79
2021/05/15 06:12:06;;;;;;;6.93;6.22;;;12.40;99.90;;;;;;5033656;28;20055;-79
2021/05/15 06:14:34;;;;;;;6.93;6.20;;;12.50;99.90;;;;;;5032318;28;20049;-79
2021/05/15 06:17:00;;;;;;;7.30;5.68;;;12.50;99.90;;;;;;5031933;28;20572;-79
2021/05/15 06:19:26;;;;;;;8.05;6.13;;;12.60;99.90;;;;;;5031840;28;20109;-79
2021/05/15 06:21:53;;;;;;;7.10;6.07;;;12.60;99.90;;;;;;5033729;28;20128;-80
2021/05/15 06:24:19;;;;;;;7.35;6.55;;;12.70;99.90;;;;;;5033505;28;20549;-79
2021/05/15 06:26:45;;;;;;;8.77;5.90;;;12.80;99.90;;;;;;5032335;28;20132;-79
2021/05/15 06:29:13;;;;;;;7.60;6.20;;;12.80;99.90;;;;;;5033171;28;20417;-79
2021/05/15 06:31:39;;;;;;;6.90;5.93;;;12.90;99.90;;;;;;5032317;28;20081;-79
2021/05/15 06:34:05;;;;;;;7.88;6.00;;;13.00;99.90;;;;;;5032083;28;20110;-79
2021/05/15 06:36:32;;;;;;;7.93;7.10;;;13.10;99.90;;;;;;5033438;28;20053;-79
2021/05/15 06:38:58;;;;;;;7.90;5.85;;;13.20;99.90;;;;;;5033490;28;20077;-79
2021/05/15 06:41:24;;;;;;;7.13;5.57;;;13.40;99.90;;;;;;5032756;28;20083;-78
2021/05/15 06:43:51;;;;;;;6.68;5.85;;;13.60;99.90;;;;;;5035388;28;20128;-79
2021/05/15 06:46:19;;;;;;;6.32;5.45;;;13.70;99.90;;;;;;5035205;28;20560;-79
2021/05/15 06:48:45;;;;;;;8.77;6.10;;;13.90;99.90;;;;;;5035011;28;20128;-80
2021/05/15 06:51:11;;;;;;;6.80;6.05;;;13.80;99.90;;;;;;5035361;28;20052;-80
2021/05/15 06:53:38;;;;;;;10.23;6.65;;;13.90;99.90;;;;;;5034756;28;20561;-80
2021/05/15 06:56:04;;;;;;;7.45;6.40;;;13.80;99.90;;;;;;5034960;28;20053;-80
2021/05/15 06:58:31;;;;;;;9.57;5.90;;;13.70;99.90;;;;;;5035121;28;20053;-80
2021/05/15 07:00:57;;;;;;;8.30;6.13;;;13.80;99.90;;;;;;5035470;28;20132;-80
2021/05/15 07:03:24;;;;;;;8.75;6.50;;;13.70;99.90;;;;;;5034600;28;20117;-80
2021/05/15 07:05:50;;;;;;;8.18;6.30;;;13.70;99.90;;;;;;5034169;28;20266;-81
2021/05/15 07:08:17;;;;;;;7.85;6.60;;;13.60;99.90;;;;;;5034408;28;20045;-80
2021/05/15 07:10:43;;;;;;;6.78;5.95;;;13.60;99.90;;;;;;5037832;28;20132;-80
2021/05/15 07:13:10;;;;;;;7.65;6.20;;;13.60;99.90;;;;;;5039214;28;20088;-78
2021/05/15 07:15:36;;;;;;;7.47;6.55;;;13.60;99.90;;;;;;5035172;28;20046;-78
2021/05/15 07:18:02;;;;;;;8.30;6.18;;;13.60;99.90;;;;;;5034665;28;20053;-77
2021/05/15 07:20:30;;;;;;;6.68;5.97;;;13.70;99.90;;;;;;5035141;28;20429;-77
2021/05/15 07:22:56;;;;;;;7.32;5.90;;;13.70;99.90;;;;;;5035094;28;20240;-76
2021/05/15 07:25:22;;;;;;;8.45;6.03;;;13.90;99.90;;;;;;5034734;28;20133;-76
2021/05/15 07:27:50;;;;;;;7.25;5.63;;;14.00;99.90;;;;;;5035245;28;20128;-79
2021/05/15 07:30:17;;;;;;;6.25;5.45;;;14.20;99.90;;;;;;5035825;28;20049;-79
2021/05/15 07:32:44;;;;;;;8.43;5.90;;;14.20;99.90;;;;;;5038783;28;20502;-80
2021/05/15 07:35:12;;;;;;;7.85;6.07;;;14.20;99.90;;;;;;5036054;28;20088;-79
2021/05/15 07:37:39;;;;;;;6.50;5.80;;;14.30;99.90;;;;;;5035372;28;20439;-81
2021/05/15 07:40:07;;;;;;;8.90;5.63;;;14.30;99.90;;;;;;5034832;28;20136;-78
2021/05/15 07:42:33;;;;;;;6.75;5.45;;;14.40;99.90;;;;;;5034210;28;20089;-78
2021/05/15 07:45:00;;;;;;;5.93;5.32;;;14.50;99.90;;;;;;5034261;28;20045;-79
2021/05/15 07:47:29;;;;;;;6.55;5.53;;;14.60;99.90;;;;;;5034996;28;20195;-77
2021/05/15 07:49:56;;;;;;;6.15;5.43;;;14.60;99.90;;;;;;5040362;28;20486;-79
2021/05/15 07:52:22;;;;;;;7.68;6.00;;;14.60;99.90;;;;;;5032051;28;20156;-78
2021/05/15 07:54:52;;;;;;;6.32;5.60;;;14.70;99.90;;;;;;5032837;28;20132;-80
2021/05/15 07:57:18;;;;;;;6.13;5.53;;;14.80;99.90;;;;;;5032957;28;20049;-77
2021/05/15 07:59:44;;;;;;;6.50;5.80;;;14.90;99.90;;;;;;5033417;28;20067;-78
2021/05/15 08:02:11;;;;;;;8.15;5.38;;;14.90;99.90;;;;;;5032983;28;20501;-76
2021/05/15 08:04:38;;;;;;;6.53;5.65;;;15.10;99.90;;;;;;5034291;28;20052;-79
2021/05/15 08:07:07;;;;;;;6.53;5.70;;;15.20;99.90;;;;;;5029867;28;20170;-75
2021/05/15 08:09:34;;;;;;;6.82;5.30;;;15.20;99.90;;;;;;5021992;28;20129;-77
2021/05/15 08:12:01;;;;;;;8.07;6.18;;;15.10;99.90;;;;;;5030780;28;20104;-77
2021/05/15 08:14:28;;;;;;;7.22;6.53;;;15.10;99.90;;;;;;5021392;28;20494;-79
2021/05/15 08:16:54;;;;;;;9.20;6.40;;;14.80;99.90;;;;;;5023912;28;20494;-77
2021/05/15 08:19:21;;;;;;;7.90;6.03;;;14.60;99.90;;;;;;5033107;28;20045;-76
2021/05/15 08:21:47;;;;;;;7.15;5.85;;;14.50;99.90;;;;;;5022581;28;20076;-77
2021/05/15 08:24:13;;;;;;;8.57;6.00;;;14.60;99.90;;;;;;5032753;28;20041;-76
2021/05/15 08:26:40;;;;;;;8.50;6.13;;;14.60;99.90;;;;;;5032486;28;20136;-77
2021/05/15 08:29:11;;;;;;;6.97;5.80;;;14.80;99.90;;;;;;5032849;28;20103;-78
2021/05/15 08:31:38;;;;;;;6.60;5.80;;;15.20;99.90;;;;;;5033085;28;20042;-77
2021/05/15 08:34:05;;;;;;;7.55;5.03;;;15.80;99.90;;;;;;5026891;28;20049;-79
2021/05/15 08:36:32;;;;;;;8.95;5.28;;;16.50;99.90;;;;;;5033153;28;20037;-76
2021/05/15 08:38:58;;;;;;;6.95;6.18;;;16.80;99.90;;;;;;5032431;28;20429;-77
2021/05/15 08:41:25;;;;;;;8.05;5.90;;;17.20;99.90;;;;;;5031464;28;20141;-77
2021/05/15 08:43:54;;;;;;;6.20;5.60;;;17.60;99.90;;;;;;5031506;28;20132;-76
2021/05/15 08:46:24;;;;;;;6.15;5.50;;;17.90;99.90;;;;;;5029093;28;20041;-78
2021/05/15 08:48:51;;;;;;;6.03;5.40;;;18.20;99.90;;;;;;5033851;28;20148;-80
2021/05/15 08:51:19;;;;;;;7.50;4.80;;;18.30;99.90;;;;;;5022632;28;20124;-78
2021/05/15 08:53:47;;;;;;;6.20;4.88;;;18.70;99.90;;;;;;5033579;28;20113;-80
2021/05/15 08:56:13;;;;;;;5.85;4.13;;;19.20;99.90;;;;;;5033397;28;20042;-78
2021/05/15 08:58:40;;;;;;;5.40;4.68;;;19.90;99.90;;;;;;5033395;28;20150;-78
2021/05/15 09:01:11;;;;;;;6.93;5.32;;;20.50;99.90;;;;;;5033579;28;20092;-79
2021/05/15 09:03:38;;;;;;;7.15;4.75;;;20.30;99.90;;;;;;5034449;28;20077;-76
2021/05/15 09:06:06;;;;;;;6.32;4.40;;;20.00;99.90;;;;;;5035878;28;20581;-78
2021/05/15 09:08:32;;;;;;;6.53;5.00;;;19.80;99.90;;;;;;5052209;28;20049;-79
2021/05/15 09:10:59;;;;;;;7.47;4.30;;;19.30;99.90;;;;;;5055327;28;20141;-80
2021/05/15 09:13:27;;;;;;;7.38;5.07;;;18.90;99.90;;;;;;5048308;28;20091;-77
2021/05/15 09:15:57;;;;;;;6.75;4.50;;;18.40;99.90;;;;;;5035922;28;20045;-77
2021/05/15 09:18:26;;;;;;;6.07;4.85;;;18.20;99.90;;;;;;5034303;28;20481;-78
2021/05/15 09:20:55;;;;;;;6.07;4.75;;;18.20;99.90;;;;;;5033210;28;20087;-77
2021/05/15 09:23:23;;;;;;;8.73;5.43;;;18.10;99.90;;;;;;5032590;28;20081;-77
2021/05/15 09:25:59;;;;;;;7.30;5.53;;;17.90;99.90;;;;;;5034525;28;20069;-77
2021/05/15 09:28:34;;;;;;;7.88;5.38;;;17.70;99.90;;;;;;5033270;28;20053;-77
2021/05/15 09:31:18;;;;;;;7.82;5.13;;;17.60;99.90;;;;;;5032926;28;20172;-77
2021/05/15 09:33:47;;;;;;;6.72;4.80;;;17.50;99.90;;;;;;5032313;28;20085;-76
2021/05/15 09:36:19;;;;;;;6.55;5.10;;;17.40;99.90;;;;;;5032359;28;20497;-77
2021/05/15 09:38:46;;;;;;;4.90;4.35;;;17.30;99.90;;;;;;5057075;22;20459;-81
2021/05/15 09:41:13;;;;;;;8.63;5.25;;;17.10;99.90;;;;;;5055554;28;20044;-81
2021/05/15 09:43:39;;;;;;;9.25;6.60;;;16.80;99.90;;;;;;5064424;28;20052;-81
2021/05/15 09:46:06;;;;;;;7.40;5.93;;;16.50;99.90;;;;;;5064775;28;20139;-84
2021/05/15 09:48:35;;;;;;;7.22;5.90;;;16.30;99.90;;;;;;5065004;28;20068;-84
2021/05/15 09:51:12;;;;;;;6.63;5.35;;;16.30;99.90;;;;;;5037070;28;20058;-83
2021/05/15 09:53:39;;;;;;;7.05;5.20;;;16.50;99.90;;;;;;5026928;28;20053;-84
2021/05/15 09:56:06;;;;;;;8.60;5.55;;;16.50;99.90;;;;;;5031999;28;20117;-81
2021/05/15 09:58:32;;;;;;;7.75;5.53;;;16.50;99.90;;;;;;5024328;28;20058;-81
2021/05/15 10:00:58;;;;;;;5.18;4.22;;;16.40;99.90;;;;;;5022108;28;20117;-80
2021/05/15 10:03:26;;;;;;;8.07;3.83;;;16.10;99.90;;;;;;5023659;28;20132;-80
2021/05/15 10:06:00;;;;;;;7.55;4.13;;;15.90;99.90;;;;;;5021955;28;20116;-80
2021/05/15 10:08:27;;;;;;;7.03;4.50;;;15.40;99.90;;;;;;5020383;28;20550;-80
2021/05/15 10:10:55;;;;;;;5.72;4.72;;;15.10;99.90;;;;;;5023054;28;20145;-79
2021/05/15 10:13:21;;;;;;;5.68;4.40;;;14.80;99.90;;;;;;5023782;28;20107;-80
2021/05/15 10:15:48;;;;;;;6.43;5.15;;;14.60;99.90;;;;;;5023428;28;20080;-80
2021/05/15 10:18:15;;;;;;;7.38;5.40;;;14.40;99.90;;;;;;5036497;28;20080;-80
2021/05/15 10:20:42;;;;;;;6.25;5.10;;;14.30;99.90;;;;;;5035161;28;20053;-82
2021/05/15 10:23:16;;;;;;;6.65;5.20;;;14.30;99.90;;;;;;5031473;28;20061;-80
2021/05/15 10:25:43;;;;;;;8.05;5.40;;;14.40;99.90;;;;;;5049502;28;20053;-81
2021/05/15 10:28:11;;;;;;;8.27;5.38;;;14.50;99.90;;;;;;5048444;28;20045;-80
2021/05/15 10:30:38;;;;;;;7.78;6.03;;;14.50;99.90;;;;;;5053262;28;20049;-81
2021/05/15 10:33:10;;;;;;;9.73;6.28;;;14.80;99.90;;;;;;5060301;28;20052;-79
2021/05/15 10:35:42;;;;;;;8.95;6.50;;;14.90;99.90;;;;;;5039190;28;20045;-79
2021/05/15 10:38:10;;;;;;;7.65;4.47;;;15.10;99.90;;;;;;5038194;28;20056;-81
2021/05/15 10:40:49;;;;;;;4.43;3.50;;;15.30;99.90;;;;;;5038452;28;20049;-81
2021/05/15 10:43:30;;;;;;;5.05;3.80;;;15.40;99.90;;;;;;5039198;28;20129;-80
2021/05/15 10:45:56;;;;;;;6.30;3.72;;;15.40;99.90;;;;;;5041129;28;20077;-80
2021/05/15 10:48:27;;;;;;;4.47;3.90;;;15.40;99.90;;;;;;5042205;28;20045;-79
2021/05/15 10:50:56;;;;;;;4.35;3.80;;;15.40;99.90;;;;;;5041724;28;20132;-80
2021/05/15 10:53:24;;;;;;;5.18;3.92;;;15.40;99.90;;;;;;5042576;28;20061;-81
2021/05/15 10:56:03;;;;;;;7.93;4.05;;;15.50;99.90;;;;;;5039910;28;20065;-80
2021/05/15 10:58:42;;;;;;;3.90;3.50;;;15.50;99.90;;;;;;5040931;28;20054;-80
2021/05/15 11:01:14;;;;;;;4.22;3.83;;;15.50;99.90;;;;;;5043615;28;20175;-81
2021/05/15 11:03:41;;;;;;;6.87;4.37;;;15.40;99.90;;;;;;5051325;28;20049;-79
2021/05/15 11:06:16;;;;;;;7.32;4.15;;;15.50;99.90;;;;;;5057783;28;20287;-80
2021/05/15 11:08:43;;;;;;;5.13;4.32;;;15.40;99.90;;;;;;5058698;28;20064;-80
2021/05/15 11:11:12;;;;;;;5.25;4.45;;;15.40;99.90;;;;;;5059329;28;20056;-82
2021/05/15 11:13:51;;;;;;;6.05;4.55;;;15.60;99.90;;;;;;5057931;28;20096;-81
2021/05/15 11:16:30;;;;;;;6.55;4.82;;;15.80;99.90;;;;;;5054564;28;20060;-81
2021/05/15 11:19:06;;;;;;;7.00;4.72;;;15.90;99.90;;;;;;5046135;28;20085;-80
2021/05/15 11:21:37;;;;;;;5.22;4.60;;;16.00;99.90;;;;;;5042932;28;20049;-81
2021/05/15 11:24:05;;;;;;;6.55;4.97;;;16.00;99.90;;;;;;5043670;28;20482;-81
2021/05/15 11:26:48;;;;;;;6.93;5.30;;;16.10;99.90;;;;;;5042885;28;20152;-82
2021/05/15 11:29:16;;;;;;;5.78;4.70;;;16.10;99.90;;;;;;5042915;28;20066;-82
2021/05/15 11:31:42;;;;;;;5.10;4.20;;;16.10;99.90;;;;;;5043297;28;20088;-81
2021/05/15 11:34:14;;;;;;;4.88;3.78;;;16.30;99.90;;;;;;5042164;28;20111;-81
2021/05/15 11:36:41;;;;;;;5.82;3.88;;;16.50;99.90;;;;;;5041300;28;20132;-81
2021/05/15 11:39:10;;;;;;;6.50;4.60;;;16.80;99.90;;;;;;5042474;28;20135;-81
2021/05/15 11:41:37;;;;;;;5.25;3.80;;;17.00;99.90;;;;;;5043491;28;20092;-81
2021/05/15 11:44:04;;;;;;;3.97;3.47;;;17.10;99.90;;;;;;5043584;28;20176;-81
2021/05/15 11:46:31;;;;;;;6.07;4.60;;;17.10;99.90;;;;;;5043884;28;20426;-81
2021/05/15 11:49:00;;;;;;;7.43;4.30;;;17.00;99.90;;;;;;5043131;28;20057;-82
2021/05/15 11:51:27;;;;;;;6.30;4.40;;;17.30;99.90;;;;;;5041033;28;20449;-82
2021/05/15 11:53:56;;;;;;;5.00;4.07;;;17.40;99.90;;;;;;5042173;28;20075;-83
2021/05/15 11:56:26;;;;;;;6.13;4.30;;;17.30;99.90;;;;;;5040508;28;20081;-83
2021/05/15 11:58:54;;;;;;;3.22;2.58;;;17.20;99.90;;;;;;5042167;28;20050;-81
2021/05/15 12:01:24;;;;;;;3.70;2.75;;;17.20;99.90;;;;;;5043130;28;20541;-83
2021/05/15 12:03:53;;;;;;;6.53;2.92;;;17.40;99.90;;;;;;5043787;28;20057;-81
2021/05/15 12:06:19;;;;;;;5.03;3.47;;;17.50;99.90;;;;;;5045351;28;20557;-83
2021/05/15 12:08:46;;;;;;;3.90;2.85;;;17.70;99.90;;;;;;5044571;28;20079;-84
2021/05/15 12:11:14;;;;;;;3.75;3.00;;;17.60;99.90;;;;;;5044336;28;20148;-82
2021/05/15 12:13:49;;;;;;;4.30;3.10;;;17.60;99.90;;;;;;5044106;28;20053;-83
2021/05/15 12:16:17;;;;;;;3.90;2.90;;;17.60;99.90;;;;;;5040888;28;20521;-84
2021/05/15 12:18:44;;;;;;;4.85;3.53;;;17.50;99.90;;;;;;5025704;28;20462;-83
2021/05/15 12:21:15;;;;;;;3.83;2.60;;;17.70;99.90;;;;;;5036999;28;20133;-83
2021/05/15 12:23:42;;;;;;;4.20;2.78;;;17.80;99.90;;;;;;5022094;28;20529;-80
2021/05/15 12:26:10;;;;;;;2.97;2.70;;;17.90;99.90;;;;;;5022256;28;20073;-81
2021/05/15 12:28:43;;;;;;;4.63;3.20;;;17.90;99.90;;;;;;5020392;28;20050;-83
2021/05/15 12:31:21;;;;;;;5.05;3.38;;;17.90;99.90;;;;;;5026632;28;20076;-81
2021/05/15 12:33:50;;;;;;;4.75;3.10;;;17.90;99.90;;;;;;5045305;28;20091;-83
2021/05/15 12:36:17;;;;;;;3.60;2.80;;;17.90;99.90;;;;;;5060105;28;20052;-84
2021/05/15 12:38:48;;;;;;;6.90;3.10;;;17.90;99.90;;;;;;5040255;28;20453;-80
2021/05/15 12:41:17;;;;;;;3.45;3.08;;;17.70;99.90;;;;;;5040957;28;20118;-82
2021/05/15 12:43:47;;;;;;;5.43;3.13;;;17.50;99.90;;;;;;5037376;28;20089;-82
2021/05/15 12:46:14;;;;;;;3.63;2.67;;;17.30;99.90;;;;;;5021628;28;20046;-82
2021/05/15 12:48:42;;;;;;;4.60;2.95;;;17.30;99.90;;;;;;5040170;28;20054;-80